createdAt,value
2022-08-03T00:01:41.514Z,2.50
2022-08-03T00:04:11.306Z,2.42
2022-08-03T00:06:40.186Z,2.30
2022-08-03T00:09:10.228Z,2.50
2022-08-03T00:11:38.564Z,2.55
2022-08-03T00:14:07.555Z,2.50
2022-08-03T00:16:36.446Z,2.60
2022-08-03T00:19:05.174Z,2.45
2022-08-03T00:21:33.669Z,2.80
2022-08-03T00:24:02.037Z,2.20
2022-08-03T00:26:32.344Z,2.63
2022-08-03T00:29:00.741Z,2.30
2022-08-03T00:31:51.506Z,2.17
2022-08-03T00:34:17.515Z,2.28
2022-08-03T00:36:59.319Z,2.25
2022-08-03T00:39:27.714Z,2.60
2022-08-03T00:41:57.406Z,2.35
2022-08-03T00:44:25.776Z,2.45
2022-08-03T00:46:54.139Z,2.10
2022-08-03T00:49:22.510Z,2.38
2022-08-03T00:51:50.910Z,2.30
2022-08-03T00:54:20.085Z,2.63
2022-08-03T00:56:59.443Z,2.25
2022-08-03T00:59:30.606Z,2.42
2022-08-03T01:01:59.744Z,2.60
2022-08-03T01:04:28.225Z,1.92
2022-08-03T01:07:05.159Z,2.28
2022-08-03T01:09:47.518Z,2.40
2022-08-03T01:12:23.874Z,2.30
2022-08-03T01:14:59.855Z,2.20
2022-08-03T01:17:37.237Z,2.60
2022-08-03T01:20:09.190Z,2.22
2022-08-03T01:22:52.376Z,2.53
2022-08-03T01:25:34.330Z,2.08
2022-08-03T01:28:26.578Z,2.13
2022-08-03T01:31:00.299Z,2.28
2022-08-03T01:33:36.863Z,2.28
2022-08-03T01:36:06.622Z,2.40
2022-08-03T01:38:37.659Z,2.20
2022-08-03T01:41:10.007Z,2.30
2022-08-03T01:43:55.199Z,2.58
2022-08-03T01:46:32.380Z,2.10
2022-08-03T01:49:09.310Z,2.50
2022-08-03T01:51:58.588Z,2.33
2022-08-03T01:54:29.443Z,2.40
2022-08-03T01:57:00.317Z,2.22
2022-08-03T01:59:31.744Z,2.28
2022-08-03T02:02:15.211Z,2.20
2022-08-03T02:04:53.886Z,2.30
2022-08-03T02:07:22.720Z,2.10
2022-08-03T02:09:53.789Z,2.20
2022-08-03T02:12:23.767Z,2.00
2022-08-03T02:14:52.881Z,2.10
2022-08-03T02:17:39.409Z,2.38
2022-08-03T02:20:11.142Z,2.40
2022-08-03T02:22:41.705Z,2.20
2022-08-03T02:25:11.625Z,2.30
2022-08-03T02:27:44.288Z,2.25
2022-08-03T02:30:14.742Z,2.45
2022-08-03T02:32:48.754Z,2.53
2022-08-03T02:35:20.564Z,2.25
2022-08-03T02:37:53.416Z,2.40
2022-08-03T02:40:24.560Z,1.92
2022-08-03T02:42:57.506Z,2.20
2022-08-03T02:45:27.607Z,2.20
2022-08-03T02:48:04.150Z,2.33
2022-08-03T02:50:35.217Z,2.10
2022-08-03T02:53:04.323Z,2.22
2022-08-03T02:55:34.986Z,2.10
2022-08-03T02:58:04.882Z,2.13
2022-08-03T03:00:34.613Z,2.20
2022-08-03T03:03:07.416Z,2.22
2022-08-03T03:05:53.655Z,2.20
2022-08-03T03:08:28.880Z,2.13
2022-08-03T03:10:59.438Z,2.33
2022-08-03T03:13:29.498Z,2.45
2022-08-03T03:16:00.866Z,2.13
2022-08-03T03:18:33.210Z,2.10
2022-08-03T03:21:02.999Z,2.58
2022-08-03T03:23:34.053Z,2.33
2022-08-03T03:26:03.213Z,2.30
2022-08-03T03:28:33.013Z,2.38
2022-08-03T03:31:02.011Z,2.35
2022-08-03T03:33:31.826Z,2.40
2022-08-03T03:36:00.656Z,2.13
2022-08-03T03:38:29.460Z,2.10
2022-08-03T03:40:57.987Z,2.25
2022-08-03T03:43:26.419Z,2.33
2022-08-03T03:45:55.961Z,2.22
2022-08-03T03:48:25.452Z,2.25
2022-08-03T03:50:57.356Z,2.22
2022-08-03T03:53:26.061Z,2.00
2022-08-03T03:55:57.899Z,2.30
2022-08-03T03:58:31.253Z,2.20
2022-08-03T04:00:59.745Z,2.38
2022-08-03T04:03:28.238Z,2.08
2022-08-03T04:06:16.425Z,2.42
2022-08-03T04:09:13.458Z,2.50
2022-08-03T04:11:45.234Z,2.35
2022-08-03T04:14:17.638Z,2.05
2022-08-03T04:16:49.666Z,2.30
2022-08-03T04:19:23.485Z,2.30
2022-08-03T04:22:00.032Z,2.35
2022-08-03T04:24:35.026Z,2.20
2022-08-03T04:27:08.111Z,2.40
2022-08-03T04:29:48.083Z,2.15
2022-08-03T04:32:18.560Z,2.30
2022-08-03T04:34:47.777Z,2.40
2022-08-03T04:37:25.800Z,2.17
2022-08-03T04:39:56.944Z,2.30
2022-08-03T04:42:27.090Z,2.10
2022-08-03T04:45:01.161Z,2.38
2022-08-03T04:47:32.179Z,2.00
2022-08-03T04:50:02.033Z,2.38
2022-08-03T04:52:32.325Z,2.53
2022-08-03T04:55:00.638Z,2.38
2022-08-03T04:57:29.014Z,2.50
2022-08-03T05:00:02.663Z,2.15
2022-08-03T05:02:32.518Z,2.55
2022-08-03T05:05:01.459Z,2.45
2022-08-03T05:07:36.162Z,2.10
2022-08-03T05:10:15.051Z,2.20
2022-08-03T05:12:45.900Z,2.50
2022-08-03T05:15:14.462Z,2.20
2022-08-03T05:17:43.174Z,2.55
2022-08-03T05:20:12.825Z,2.20
2022-08-03T05:22:42.659Z,2.30
2022-08-03T05:25:17.292Z,2.22
2022-08-03T05:27:48.381Z,2.53
2022-08-03T05:30:30.907Z,2.13
2022-08-03T05:33:03.609Z,2.22
2022-08-03T05:35:55.882Z,2.30
2022-08-03T05:38:28.067Z,2.42
2022-08-03T05:41:22.650Z,2.30
2022-08-03T05:43:46.332Z,2.30
2022-08-03T05:46:14.757Z,2.30
2022-08-03T05:48:44.010Z,2.30
2022-08-03T05:51:12.552Z,2.00
2022-08-03T05:53:42.736Z,2.20
2022-08-03T05:56:14.393Z,2.30
2022-08-03T05:58:44.655Z,2.10
2022-08-03T06:01:13.150Z,2.50
2022-08-03T06:03:41.838Z,2.25
2022-08-03T06:06:10.243Z,2.70
2022-08-03T06:08:38.745Z,2.33
2022-08-03T06:11:08.815Z,2.40
2022-08-03T06:13:37.495Z,2.40
2022-08-03T06:16:06.422Z,2.67
2022-08-03T06:18:35.137Z,2.55
2022-08-03T06:21:14.633Z,2.40
2022-08-03T06:23:54.829Z,2.30
2022-08-03T06:26:26.302Z,2.25
2022-08-03T06:28:55.256Z,2.50
2022-08-03T06:31:32.409Z,2.60
2022-08-03T06:34:33.865Z,2.30
2022-08-03T06:36:58.476Z,2.47
2022-08-03T06:39:30.691Z,2.55
2022-08-03T06:42:00.445Z,2.50
2022-08-03T06:44:28.756Z,2.42
2022-08-03T06:46:57.189Z,2.50
2022-08-03T06:49:25.656Z,2.60
2022-08-03T06:52:05.451Z,2.55
2022-08-03T06:54:37.608Z,2.22
2022-08-03T06:57:11.262Z,2.22
2022-08-03T07:00:07.736Z,2.50
2022-08-03T07:02:28.538Z,2.60
2022-08-03T07:04:57.500Z,2.58
2022-08-03T07:07:26.077Z,2.58
2022-08-03T07:09:57.115Z,2.58
2022-08-03T07:12:29.569Z,2.60
2022-08-03T07:15:01.262Z,2.72
2022-08-03T07:17:31.346Z,2.80
2022-08-03T07:20:00.248Z,2.65
2022-08-03T07:22:28.697Z,2.63
2022-08-03T07:24:57.696Z,2.40
2022-08-03T07:27:30.586Z,2.83
2022-08-03T07:29:59.700Z,2.55
2022-08-03T07:32:28.543Z,2.47
2022-08-03T07:35:00.625Z,2.70
2022-08-03T07:37:29.811Z,2.60
2022-08-03T07:39:58.521Z,2.63
2022-08-03T07:42:26.980Z,2.92
2022-08-03T07:44:57.115Z,2.58
2022-08-03T07:47:34.914Z,2.47
2022-08-03T07:50:03.715Z,2.95
2022-08-03T07:52:50.830Z,2.78
2022-08-03T07:55:20.434Z,2.90
2022-08-03T07:57:49.106Z,2.70
2022-08-03T08:00:20.901Z,2.95
2022-08-03T08:02:49.307Z,2.83
2022-08-03T08:05:18.289Z,2.58
2022-08-03T08:07:50.968Z,2.90
2022-08-03T08:10:20.340Z,2.95
2022-08-03T08:12:49.072Z,2.50
2022-08-03T08:15:18.857Z,2.58
2022-08-03T08:17:50.068Z,2.50
2022-08-03T08:20:28.292Z,2.83
2022-08-03T08:23:01.275Z,2.60
2022-08-03T08:25:30.668Z,3.03
2022-08-03T08:28:29.707Z,2.17
2022-08-03T08:30:51.855Z,2.50
2022-08-03T08:33:23.103Z,2.13
2022-08-03T08:35:53.502Z,2.40
2022-08-03T08:38:22.017Z,2.70
2022-08-03T08:40:50.939Z,2.70
2022-08-03T08:43:19.346Z,2.38
2022-08-03T08:45:50.335Z,2.50
2022-08-03T08:48:25.717Z,2.72
2022-08-03T08:50:55.449Z,2.67
2022-08-03T08:53:27.694Z,2.28
2022-08-03T08:56:00.894Z,2.53
2022-08-03T08:58:32.088Z,2.65
2022-08-03T09:01:00.655Z,2.20
2022-08-03T09:03:31.047Z,2.83
2022-08-03T09:06:02.410Z,2.78
2022-08-03T09:08:32.056Z,2.97
2022-08-03T09:11:00.524Z,2.33
2022-08-03T09:13:29.365Z,2.50
2022-08-03T09:16:22.111Z,2.45
2022-08-03T09:18:54.034Z,2.20
2022-08-03T09:21:33.297Z,2.15
2022-08-03T09:24:05.781Z,2.03
2022-08-03T09:26:37.303Z,2.30
2022-08-03T09:29:13.443Z,2.15
2022-08-03T09:31:44.303Z,1.88
2022-08-03T09:34:16.095Z,2.10
2022-08-03T09:36:45.976Z,2.17
2022-08-03T09:39:16.331Z,2.10
2022-08-03T09:41:46.437Z,2.40
2022-08-03T09:44:25.470Z,2.17
2022-08-03T09:46:56.871Z,2.03
2022-08-03T09:49:27.089Z,2.45
2022-08-03T09:52:30.266Z,2.10
2022-08-03T09:54:44.771Z,2.38
2022-08-03T09:57:24.073Z,2.25
2022-08-03T10:00:03.159Z,2.08
2022-08-03T10:02:34.679Z,2.30
2022-08-03T10:05:05.118Z,2.10
2022-08-03T10:07:46.037Z,2.00
2022-08-03T10:10:31.843Z,2.00
2022-08-03T10:13:02.406Z,2.13
2022-08-03T10:16:21.561Z,1.85
2022-08-03T10:18:19.631Z,2.15
2022-08-03T10:20:54.613Z,2.00
2022-08-03T10:23:25.093Z,2.08
2022-08-03T10:25:58.150Z,1.88
2022-08-03T10:28:26.917Z,2.15
2022-08-03T10:30:57.545Z,1.70
2022-08-03T10:33:51.219Z,2.10
2022-08-03T10:36:19.481Z,1.88
2022-08-03T10:38:52.997Z,1.90
2022-08-03T10:41:23.024Z,2.13
2022-08-03T10:43:57.995Z,2.00
2022-08-03T10:46:28.507Z,1.90
2022-08-03T10:48:57.790Z,2.05
2022-08-03T10:51:32.190Z,2.10
2022-08-03T10:54:01.950Z,2.13
2022-08-03T10:56:58.425Z,1.98
2022-08-03T11:00:00.683Z,2.00
2022-08-03T11:03:06.711Z,2.25
2022-08-03T11:05:37.573Z,1.98
2022-08-03T11:08:30.524Z,2.08
2022-08-03T11:11:02.453Z,1.90
2022-08-03T11:13:34.065Z,2.08
2022-08-03T11:16:21.857Z,2.13
2022-08-03T11:18:58.361Z,2.00
2022-08-03T11:21:56.411Z,2.20
2022-08-03T11:25:00.480Z,1.88
2022-08-03T11:27:30.920Z,2.00
2022-08-03T11:30:06.845Z,2.05
2022-08-03T11:33:03.265Z,2.00
2022-08-03T11:35:33.793Z,2.20
2022-08-03T11:38:10.489Z,2.10
2022-08-03T11:40:43.538Z,1.77
2022-08-03T11:43:45.530Z,1.92
2022-08-03T11:46:28.463Z,2.08
2022-08-03T11:49:10.278Z,1.77
2022-08-03T11:51:40.427Z,1.90
2022-08-03T11:54:09.146Z,2.10
2022-08-03T11:56:49.522Z,1.77
2022-08-03T11:59:22.249Z,2.15
2022-08-03T12:01:51.306Z,2.00
2022-08-03T12:04:19.987Z,2.20
2022-08-03T12:07:00.564Z,1.88
2022-08-03T12:09:29.107Z,2.03
2022-08-03T12:12:00.523Z,2.20
2022-08-03T12:14:48.600Z,1.85
2022-08-03T12:17:19.169Z,1.70
2022-08-03T12:19:47.905Z,2.00
2022-08-03T12:22:17.535Z,1.90
2022-08-03T12:24:47.188Z,1.98
2022-08-03T12:27:26.644Z,2.00
2022-08-03T12:29:58.496Z,1.80
2022-08-03T12:32:27.751Z,2.17
2022-08-03T12:35:00.190Z,1.70
2022-08-03T12:37:29.764Z,2.40
2022-08-03T12:40:07.736Z,2.25
2022-08-03T12:42:40.853Z,1.75
2022-08-03T12:45:23.684Z,1.80
2022-08-03T12:47:53.768Z,1.90
2022-08-03T12:50:26.778Z,2.08
2022-08-03T12:52:55.647Z,1.70
2022-08-03T12:55:27.710Z,1.83
2022-08-03T12:57:57.581Z,1.80
2022-08-03T13:00:29.321Z,2.00
2022-08-03T13:03:38.494Z,2.30
2022-08-03T13:05:52.237Z,2.05
2022-08-03T13:08:21.638Z,1.70
2022-08-03T13:10:50.279Z,1.85
2022-08-03T13:13:20.887Z,1.67
2022-08-03T13:15:49.297Z,2.03
2022-08-03T13:18:17.765Z,1.60
2022-08-03T13:20:46.153Z,1.92
2022-08-03T13:23:22.206Z,2.00
2022-08-03T13:25:55.333Z,1.80
2022-08-03T13:28:25.926Z,2.00
2022-08-03T13:30:55.083Z,1.80
2022-08-03T13:33:23.452Z,2.20
2022-08-03T13:35:51.759Z,1.88
2022-08-03T13:38:21.656Z,2.08
2022-08-03T13:40:55.476Z,1.90
2022-08-03T13:43:26.555Z,1.95
2022-08-03T13:45:57.945Z,1.77
2022-08-03T13:48:35.866Z,1.73
2022-08-03T13:51:21.703Z,1.80
2022-08-03T13:53:52.328Z,1.77
2022-08-03T13:56:20.789Z,2.15
2022-08-03T13:58:50.513Z,2.00
2022-08-03T14:01:34.398Z,1.80
2022-08-03T14:04:21.529Z,1.88
2022-08-03T14:06:50.385Z,1.80
2022-08-03T14:09:18.859Z,2.10
2022-08-03T14:12:08.467Z,2.20
2022-08-03T14:14:38.219Z,2.17
2022-08-03T14:17:06.721Z,1.73
2022-08-03T14:19:52.523Z,1.75
2022-08-03T14:22:22.325Z,1.63
2022-08-03T14:24:50.728Z,1.85
2022-08-03T14:27:20.150Z,1.83
2022-08-03T14:29:50.046Z,4.47
2022-08-03T14:32:18.411Z,5.45
2022-08-03T14:34:46.744Z,3.78
2022-08-03T14:37:16.540Z,3.67
2022-08-03T14:40:02.082Z,2.80
2022-08-03T14:42:30.545Z,2.35
2022-08-03T14:45:03.574Z,1.98
2022-08-03T14:49:02.527Z,1.70
2022-08-03T14:50:37.850Z,1.70
2022-08-03T14:53:10.227Z,1.90
2022-08-03T14:55:50.900Z,1.80
2022-08-03T14:58:21.558Z,2.03
2022-08-03T15:00:52.590Z,1.60
2022-08-03T15:03:23.856Z,1.83
2022-08-03T15:05:53.195Z,1.85
2022-08-03T15:08:21.879Z,1.90
2022-08-03T15:10:50.734Z,1.90
2022-08-03T15:13:19.787Z,1.73
2022-08-03T15:15:49.714Z,1.80
2022-08-03T15:18:20.213Z,1.80
2022-08-03T15:20:50.855Z,2.00
2022-08-03T15:23:19.947Z,1.70
2022-08-03T15:26:03.974Z,2.45
2022-08-03T15:28:37.451Z,2.42
2022-08-03T15:31:06.809Z,2.00
2022-08-03T15:33:36.550Z,1.85
2022-08-03T15:36:05.516Z,2.03
2022-08-03T15:38:33.880Z,1.90
2022-08-03T15:41:02.266Z,2.05
2022-08-03T15:43:30.642Z,2.00
2022-08-03T15:46:28.142Z,2.10
2022-08-03T15:48:49.677Z,1.90
2022-08-03T15:51:18.134Z,1.83
2022-08-03T15:53:46.559Z,2.10
2022-08-03T15:56:18.603Z,1.80
2022-08-03T15:59:03.268Z,1.95
2022-08-03T16:01:36.444Z,1.90
2022-08-03T16:04:06.538Z,1.75
2022-08-03T16:06:36.295Z,1.88
2022-08-03T16:09:23.755Z,1.70
2022-08-03T16:11:55.536Z,1.73
2022-08-03T16:14:34.442Z,1.70
2022-08-03T16:17:06.481Z,1.73
2022-08-03T16:19:36.242Z,2.00
2022-08-03T16:22:08.237Z,2.40
2022-08-03T16:24:37.896Z,1.90
2022-08-03T16:27:37.419Z,1.80
2022-08-03T16:29:56.776Z,1.70
2022-08-03T16:32:25.140Z,1.90
2022-08-03T16:34:54.886Z,2.03
2022-08-03T16:37:38.378Z,2.10
2022-08-03T16:40:17.270Z,2.03
2022-08-03T16:42:47.747Z,1.90
2022-08-03T16:45:16.248Z,1.73
2022-08-03T16:47:44.875Z,1.80
2022-08-03T16:50:19.738Z,1.67
2022-08-03T16:52:48.776Z,2.10
2022-08-03T16:55:42.874Z,2.38
2022-08-03T16:58:07.320Z,2.00
2022-08-03T17:00:41.487Z,1.60
2022-08-03T17:03:12.780Z,2.13
2022-08-03T17:05:51.010Z,2.03
2022-08-03T17:08:26.300Z,2.33
2022-08-03T17:10:57.089Z,1.90
2022-08-03T17:13:27.667Z,2.30
2022-08-03T17:16:10.593Z,2.20
2022-08-03T17:18:42.288Z,1.88
2022-08-03T17:21:18.633Z,2.30
2022-08-03T17:23:52.774Z,2.00
2022-08-03T17:26:24.567Z,2.50
2022-08-03T17:29:12.508Z,1.92
2022-08-03T17:31:48.994Z,2.05
2022-08-03T17:34:19.110Z,2.30
2022-08-03T17:37:05.897Z,2.25
2022-08-03T17:42:30.493Z,2.10
2022-08-03T17:45:01.983Z,2.47
2022-08-03T17:47:42.443Z,2.40
2022-08-03T17:50:25.353Z,2.30
2022-08-03T17:53:07.050Z,2.22
2022-08-03T17:55:56.534Z,2.08
2022-08-03T17:58:52.851Z,1.98
2022-08-03T18:02:03.091Z,2.40
2022-08-03T18:04:40.650Z,2.42
2022-08-03T18:07:12.650Z,2.63
2022-08-03T18:10:04.391Z,2.45
2022-08-03T18:12:45.191Z,2.42
2022-08-03T18:15:21.411Z,3.05
2022-08-03T18:17:55.697Z,2.80
2022-08-03T18:20:31.259Z,2.67
2022-08-03T18:23:04.970Z,2.47
2022-08-03T18:25:45.213Z,2.78
2022-08-03T18:28:19.690Z,3.08
2022-08-03T18:30:53.623Z,3.65
2022-08-03T18:34:17.625Z,3.13
2022-08-03T18:36:17.407Z,3.30
2022-08-03T18:38:48.219Z,2.95
2022-08-03T18:41:32.735Z,3.20
2022-08-03T18:44:08.590Z,3.38
2022-08-03T18:46:51.994Z,3.65
2022-08-03T18:49:38.551Z,3.10
2022-08-03T18:52:17.048Z,2.80
2022-08-03T18:55:02.481Z,2.33
2022-08-03T18:57:41.455Z,2.92
2022-08-03T19:00:14.869Z,2.90
2022-08-03T19:02:50.307Z,2.97
2022-08-03T19:05:21.656Z,2.95
2022-08-03T19:08:00.450Z,2.70
2022-08-03T19:10:34.872Z,2.60
2022-08-03T19:13:11.564Z,2.75
2022-08-03T19:15:51.039Z,2.28
2022-08-03T19:18:22.955Z,2.75
2022-08-03T19:20:54.666Z,2.58
2022-08-03T19:23:25.970Z,2.80
2022-08-03T19:25:59.979Z,2.47
2022-08-03T19:28:31.643Z,2.25
2022-08-03T19:31:06.308Z,2.88
2022-08-03T19:33:55.721Z,2.85
2022-08-03T19:36:28.777Z,2.92
2022-08-03T19:38:58.193Z,3.08
2022-08-03T19:44:27.792Z,2.58
2022-08-03T19:47:03.814Z,2.70
2022-08-03T19:50:04.592Z,2.47
2022-08-03T19:52:31.579Z,2.92
2022-08-03T19:55:01.905Z,2.65
2022-08-03T19:57:34.023Z,2.65
2022-08-03T20:00:05.081Z,2.67
2022-08-03T20:02:34.722Z,2.35
2022-08-03T20:05:03.235Z,2.63
2022-08-03T20:07:32.483Z,2.53
2022-08-03T20:10:03.453Z,2.63
2022-08-03T20:12:39.131Z,2.35
2022-08-03T20:15:11.087Z,2.28
2022-08-03T20:17:55.441Z,2.38
2022-08-03T20:20:28.492Z,2.38
2022-08-03T20:23:00.056Z,2.90
2022-08-03T20:25:37.535Z,2.22
2022-08-03T20:28:13.962Z,2.28
2022-08-03T20:30:47.225Z,2.63
2022-08-03T20:33:18.244Z,2.45
2022-08-03T20:35:49.172Z,2.50
2022-08-03T20:38:18.816Z,2.40
2022-08-03T20:40:47.931Z,2.22
2022-08-03T20:43:16.491Z,2.45
2022-08-03T20:46:01.009Z,2.22
2022-08-03T20:48:38.613Z,2.45
2022-08-03T20:51:19.305Z,2.17
2022-08-03T20:53:59.485Z,2.70
2022-08-03T20:56:33.728Z,2.35
2022-08-03T20:59:04.294Z,2.95
2022-08-03T21:01:36.684Z,2.03
2022-08-03T21:04:07.053Z,2.00
2022-08-03T21:06:45.494Z,2.90
2022-08-03T21:09:18.779Z,2.70
2022-08-03T21:11:51.286Z,2.65
2022-08-03T21:13:10.080Z,2.80
2022-08-03T21:14:24.962Z,2.53
2022-08-03T21:16:56.219Z,2.47
2022-08-03T21:19:27.185Z,2.55
2022-08-03T21:21:56.909Z,2.40
2022-08-03T21:24:26.880Z,2.72
2022-08-03T21:26:55.979Z,2.60
2022-08-03T21:29:25.292Z,2.47
2022-08-03T21:31:55.474Z,2.50
2022-08-03T21:34:25.379Z,2.20
2022-08-03T21:36:53.710Z,2.30
2022-08-03T21:39:22.191Z,2.22
2022-08-03T21:41:50.548Z,2.50
2022-08-03T21:44:25.233Z,2.13
2022-08-03T21:47:00.133Z,2.33
2022-08-03T21:50:05.268Z,2.63
2022-08-03T21:52:21.359Z,2.70
2022-08-03T21:54:51.884Z,2.50
2022-08-03T21:57:23.841Z,2.40
2022-08-03T21:59:55.374Z,2.70
2022-08-03T22:02:31.286Z,2.47
2022-08-03T22:05:04.828Z,2.63
2022-08-03T22:07:33.942Z,2.67
2022-08-03T22:10:04.050Z,2.30
2022-08-03T22:12:33.697Z,2.45
2022-08-03T22:15:03.914Z,2.45
2022-08-03T22:17:55.936Z,2.65
2022-08-03T22:20:23.896Z,2.15
2022-08-03T22:22:57.051Z,1.92
2022-08-03T22:25:30.051Z,2.40
2022-08-03T22:28:00.903Z,2.30
2022-08-03T22:30:29.311Z,2.25
2022-08-03T22:33:00.643Z,2.53
2022-08-03T22:35:29.711Z,2.50
2022-08-03T22:37:59.993Z,2.30
2022-08-03T22:40:29.567Z,2.60
2022-08-03T22:42:58.701Z,2.50
2022-08-03T22:46:07.467Z,2.42
2022-08-03T22:48:18.088Z,2.35
2022-08-03T22:50:47.178Z,2.60
2022-08-03T22:53:20.699Z,2.85
2022-08-03T22:55:50.500Z,2.90
2022-08-03T22:58:20.894Z,2.60
2022-08-03T23:00:54.457Z,2.85
2022-08-03T23:04:01.010Z,2.80
2022-08-03T23:06:19.605Z,2.60
2022-08-03T23:08:48.610Z,3.00
2022-08-03T23:11:19.638Z,2.67
2022-08-03T23:13:50.645Z,2.95
2022-08-03T23:16:29.357Z,2.35
2022-08-03T23:19:16.464Z,2.70
2022-08-03T23:21:53.072Z,2.78
2022-08-03T23:24:30.276Z,2.78
2022-08-03T23:26:59.448Z,3.03
2022-08-03T23:29:29.995Z,3.00
2022-08-03T23:31:59.553Z,2.85
2022-08-03T23:34:47.271Z,2.83
2022-08-03T23:37:16.451Z,2.97
2022-08-03T23:39:47.223Z,2.90
2022-08-03T23:42:20.285Z,3.42
2022-08-03T23:44:54.168Z,2.80
2022-08-03T23:47:22.736Z,2.47
2022-08-03T23:49:53.640Z,2.83
2022-08-03T23:52:30.450Z,2.72
2022-08-03T23:55:09.437Z,3.00
2022-08-03T23:57:47.861Z,2.83
